Adamsville, Pennsylvania
Current Conditions -  °F | °C
As of 7:53 PM on Saturday 25 Oct 2014 (Local Time) from KGKJ Reporting Station
Clear Clear  
Wind Chill: 57°   Ceiling: Unl
Heat Index: 57°   Visibility: 10mi
Dew Point: 45°   Wind: 9mph
Humidity: 64%   Direction: 260°W
Pressure: 29.72"   Gusts: NA
Location:  41.51°N, 80.37°W
Report Text: KGKJ 252353Z AUTO 26008KT 10SM CLR 14/07 A2972 RMK AO2 SLP066 T01390072 10194 20139 52004 TSNO
Loading
Personal Weather Stations






























Interactive Weather Map
Tropical Storm Tracking
New forecast layout! Learn more

10-Day Weather Forecast

Advertisements
Track Severe Weather on mobile